sensor_id;sensor_type;location;lat;lon;timestamp;temperature;humidity
65034;DHT22;51601;51.356;12.458;2022-12-24T00:03:36;9.60;99.90
65034;DHT22;51601;51.356;12.458;2022-12-24T00:07:53;9.60;99.90
65034;DHT22;51601;51.356;12.458;2022-12-24T00:12:12;9.60;99.90
65034;DHT22;51601;51.356;12.458;2022-12-24T00:16:32;9.70;99.90
65034;DHT22;51601;51.356;12.458;2022-12-24T00:20:51;9.70;99.90
65034;DHT22;51601;51.356;12.458;2022-12-24T00:25:09;9.80;99.90
65034;DHT22;51601;51.356;12.458;2022-12-24T00:29:28;9.90;99.90
65034;DHT22;51601;51.356;12.458;2022-12-24T00:33:48;9.80;99.90
65034;DHT22;51601;51.356;12.458;2022-12-24T00:38:06;9.80;99.90
65034;DHT22;51601;51.356;12.458;2022-12-24T00:42:24;9.80;99.90
65034;DHT22;51601;51.356;12.458;2022-12-24T00:46:43;9.80;99.90
65034;DHT22;51601;51.356;12.458;2022-12-24T00:51:03;9.80;99.90
65034;DHT22;51601;51.356;12.458;2022-12-24T00:55:21;9.80;99.90
65034;DHT22;51601;51.356;12.458;2022-12-24T00:59:39;9.80;99.90
65034;DHT22;51601;51.356;12.458;2022-12-24T01:03:58;9.80;99.90
65034;DHT22;51601;51.356;12.458;2022-12-24T01:08:31;9.80;99.90
65034;DHT22;51601;51.356;12.458;2022-12-24T01:12:49;9.80;99.90
65034;DHT22;51601;51.356;12.458;2022-12-24T01:17:07;9.80;99.90
65034;DHT22;51601;51.356;12.458;2022-12-24T01:22:00;9.80;99.90
65034;DHT22;51601;51.356;12.458;2022-12-24T01:26:34;9.80;99.90
65034;DHT22;51601;51.356;12.458;2022-12-24T01:30:54;9.90;99.90
65034;DHT22;51601;51.356;12.458;2022-12-24T01:35:13;9.90;99.90
65034;DHT22;51601;51.356;12.458;2022-12-24T01:39:33;9.90;99.90
65034;DHT22;51601;51.356;12.458;2022-12-24T01:43:53;10.00;99.90
65034;DHT22;51601;51.356;12.458;2022-12-24T01:48:19;9.90;99.90
65034;DHT22;51601;51.356;12.458;2022-12-24T01:52:38;10.00;99.90
65034;DHT22;51601;51.356;12.458;2022-12-24T01:57:00;10.00;99.90
65034;DHT22;51601;51.356;12.458;2022-12-24T02:01:20;10.00;99.90
65034;DHT22;51601;51.356;12.458;2022-12-24T02:05:45;10.00;99.90
65034;DHT22;51601;51.356;12.458;2022-12-24T02:10:08;10.00;99.90
65034;DHT22;51601;51.356;12.458;2022-12-24T02:14:28;10.10;99.90
65034;DHT22;51601;51.356;12.458;2022-12-24T02:18:57;10.10;99.90
65034;DHT22;51601;51.356;12.458;2022-12-24T02:23:34;10.00;99.90
65034;DHT22;51601;51.356;12.458;2022-12-24T02:28:03;10.00;99.90
65034;DHT22;51601;51.356;12.458;2022-12-24T02:32:34;10.00;99.90
65034;DHT22;51601;51.356;12.458;2022-12-24T02:36:58;10.10;99.90
65034;DHT22;51601;51.356;12.458;2022-12-24T02:41:19;10.10;99.90
65034;DHT22;51601;51.356;12.458;2022-12-24T02:45:44;10.10;99.90
65034;DHT22;51601;51.356;12.458;2022-12-24T02:50:12;10.10;99.90
65034;DHT22;51601;51.356;12.458;2022-12-24T02:54:32;10.10;99.90
65034;DHT22;51601;51.356;12.458;2022-12-24T02:59:01;10.10;99.90
65034;DHT22;51601;51.356;12.458;2022-12-24T03:03:33;10.10;99.90
65034;DHT22;51601;51.356;12.458;2022-12-24T03:08:01;10.20;99.90
65034;DHT22;51601;51.356;12.458;2022-12-24T03:12:27;10.20;99.90
65034;DHT22;51601;51.356;12.458;2022-12-24T03:16:49;10.20;99.90
65034;DHT22;51601;51.356;12.458;2022-12-24T03:21:10;10.10;99.90
65034;DHT22;51601;51.356;12.458;2022-12-24T03:25:30;10.20;99.90
65034;DHT22;51601;51.356;12.458;2022-12-24T03:29:49;10.20;99.90
65034;DHT22;51601;51.356;12.458;2022-12-24T03:34:07;10.10;99.90
65034;DHT22;51601;51.356;12.458;2022-12-24T03:38:25;10.10;99.90
65034;DHT22;51601;51.356;12.458;2022-12-24T03:42:44;10.10;99.90
65034;DHT22;51601;51.356;12.458;2022-12-24T03:47:04;10.00;99.90
65034;DHT22;51601;51.356;12.458;2022-12-24T03:51:24;10.10;99.90
65034;DHT22;51601;51.356;12.458;2022-12-24T03:55:43;10.10;99.90
65034;DHT22;51601;51.356;12.458;2022-12-24T04:00:04;10.10;99.90
65034;DHT22;51601;51.356;12.458;2022-12-24T04:04:29;10.10;99.90
65034;DHT22;51601;51.356;12.458;2022-12-24T04:08:50;10.20;99.90
65034;DHT22;51601;51.356;12.458;2022-12-24T04:13:08;10.20;99.90
65034;DHT22;51601;51.356;12.458;2022-12-24T04:17:27;10.20;99.90
65034;DHT22;51601;51.356;12.458;2022-12-24T04:21:47;10.20;99.90
65034;DHT22;51601;51.356;12.458;2022-12-24T04:26:07;10.20;99.90
65034;DHT22;51601;51.356;12.458;2022-12-24T04:30:26;10.20;99.90
65034;DHT22;51601;51.356;12.458;2022-12-24T04:34:46;10.20;99.90
65034;DHT22;51601;51.356;12.458;2022-12-24T04:39:06;10.20;99.90
65034;DHT22;51601;51.356;12.458;2022-12-24T04:43:23;10.30;99.90
65034;DHT22;51601;51.356;12.458;2022-12-24T04:47:41;10.30;99.90
65034;DHT22;51601;51.356;12.458;2022-12-24T04:52:01;10.30;99.90
65034;DHT22;51601;51.356;12.458;2022-12-24T04:56:22;10.30;99.90
65034;DHT22;51601;51.356;12.458;2022-12-24T05:00:42;10.30;99.90
65034;DHT22;51601;51.356;12.458;2022-12-24T05:05:00;10.30;99.90
65034;DHT22;51601;51.356;12.458;2022-12-24T05:09:20;10.30;99.90
65034;DHT22;51601;51.356;12.458;2022-12-24T05:13:39;10.30;99.90
65034;DHT22;51601;51.356;12.458;2022-12-24T05:18:03;10.30;99.90
65034;DHT22;51601;51.356;12.458;2022-12-24T05:22:21;10.30;99.90
65034;DHT22;51601;51.356;12.458;2022-12-24T05:26:59;10.30;99.90
65034;DHT22;51601;51.356;12.458;2022-12-24T05:31:20;10.30;99.90
65034;DHT22;51601;51.356;12.458;2022-12-24T05:35:40;10.30;99.90
65034;DHT22;51601;51.356;12.458;2022-12-24T05:39:58;10.30;99.90
65034;DHT22;51601;51.356;12.458;2022-12-24T05:44:18;10.30;99.90
65034;DHT22;51601;51.356;12.458;2022-12-24T05:48:37;10.20;99.90
65034;DHT22;51601;51.356;12.458;2022-12-24T05:52:55;10.20;99.90
65034;DHT22;51601;51.356;12.458;2022-12-24T05:57:14;10.10;99.90
65034;DHT22;51601;51.356;12.458;2022-12-24T06:01:33;10.10;99.90
65034;DHT22;51601;51.356;12.458;2022-12-24T06:06:00;10.00;99.90
65034;DHT22;51601;51.356;12.458;2022-12-24T06:10:20;10.00;99.90
65034;DHT22;51601;51.356;12.458;2022-12-24T06:14:38;9.90;99.90
65034;DHT22;51601;51.356;12.458;2022-12-24T06:18:58;9.90;99.90
65034;DHT22;51601;51.356;12.458;2022-12-24T06:23:17;9.90;99.90
65034;DHT22;51601;51.356;12.458;2022-12-24T06:27:35;9.90;99.90
65034;DHT22;51601;51.356;12.458;2022-12-24T06:31:53;9.80;99.90
65034;DHT22;51601;51.356;12.458;2022-12-24T06:36:14;9.90;99.90
65034;DHT22;51601;51.356;12.458;2022-12-24T06:40:37;9.80;99.90
65034;DHT22;51601;51.356;12.458;2022-12-24T06:44:57;9.80;99.90
65034;DHT22;51601;51.356;12.458;2022-12-24T06:49:24;9.80;99.90
65034;DHT22;51601;51.356;12.458;2022-12-24T06:53:43;9.80;99.90
65034;DHT22;51601;51.356;12.458;2022-12-24T06:58:03;9.80;99.90
65034;DHT22;51601;51.356;12.458;2022-12-24T07:02:21;9.70;99.90
65034;DHT22;51601;51.356;12.458;2022-12-24T07:06:39;9.60;99.90
65034;DHT22;51601;51.356;12.458;2022-12-24T07:10:59;9.60;99.90
65034;DHT22;51601;51.356;12.458;2022-12-24T07:15:18;9.50;99.90
65034;DHT22;51601;51.356;12.458;2022-12-24T07:19:36;9.50;99.90
65034;DHT22;51601;51.356;12.458;2022-12-24T07:23:55;9.50;99.90
65034;DHT22;51601;51.356;12.458;2022-12-24T07:28:14;9.40;99.90
65034;DHT22;51601;51.356;12.458;2022-12-24T07:32:37;9.30;99.90
65034;DHT22;51601;51.356;12.458;2022-12-24T07:36:55;9.20;99.90
65034;DHT22;51601;51.356;12.458;2022-12-24T07:41:13;9.10;99.90
65034;DHT22;51601;51.356;12.458;2022-12-24T07:45:32;9.00;99.90
65034;DHT22;51601;51.356;12.458;2022-12-24T07:49:52;9.00;99.90
65034;DHT22;51601;51.356;12.458;2022-12-24T07:54:10;8.90;99.90
65034;DHT22;51601;51.356;12.458;2022-12-24T07:58:28;8.90;99.90
65034;DHT22;51601;51.356;12.458;2022-12-24T08:02:48;8.90;99.90
65034;DHT22;51601;51.356;12.458;2022-12-24T08:07:07;8.90;99.90
65034;DHT22;51601;51.356;12.458;2022-12-24T08:11:25;8.90;99.90
65034;DHT22;51601;51.356;12.458;2022-12-24T08:15:44;8.90;99.90
65034;DHT22;51601;51.356;12.458;2022-12-24T08:20:04;8.90;99.90
65034;DHT22;51601;51.356;12.458;2022-12-24T08:24:23;9.00;99.90
65034;DHT22;51601;51.356;12.458;2022-12-24T08:28:41;9.10;99.90
65034;DHT22;51601;51.356;12.458;2022-12-24T08:32:59;9.20;99.90
65034;DHT22;51601;51.356;12.458;2022-12-24T08:37:19;9.30;99.90
65034;DHT22;51601;51.356;12.458;2022-12-24T08:41:38;9.30;99.90
65034;DHT22;51601;51.356;12.458;2022-12-24T08:46:01;9.30;99.90
65034;DHT22;51601;51.356;12.458;2022-12-24T08:50:23;9.30;99.90
65034;DHT22;51601;51.356;12.458;2022-12-24T08:54:43;9.30;99.90
65034;DHT22;51601;51.356;12.458;2022-12-24T08:59:02;9.40;99.90
65034;DHT22;51601;51.356;12.458;2022-12-24T09:03:20;9.60;99.90
65034;DHT22;51601;51.356;12.458;2022-12-24T09:07:45;9.90;99.90
65034;DHT22;51601;51.356;12.458;2022-12-24T09:12:05;10.10;99.90
65034;DHT22;51601;51.356;12.458;2022-12-24T09:16:24;10.20;99.90
65034;DHT22;51601;51.356;12.458;2022-12-24T09:20:42;10.40;99.60
65034;DHT22;51601;51.356;12.458;2022-12-24T09:25:04;10.40;99.40
65034;DHT22;51601;51.356;12.458;2022-12-24T09:29:26;10.60;99.70
65034;DHT22;51601;51.356;12.458;2022-12-24T09:33:47;10.70;99.40
65034;DHT22;51601;51.356;12.458;2022-12-24T09:38:06;11.00;99.10
65034;DHT22;51601;51.356;12.458;2022-12-24T09:42:35;11.00;98.30
65034;DHT22;51601;51.356;12.458;2022-12-24T09:47:09;11.00;97.80
65034;DHT22;51601;51.356;12.458;2022-12-24T09:51:33;10.90;97.40
65034;DHT22;51601;51.356;12.458;2022-12-24T09:55:55;10.80;97.60
65034;DHT22;51601;51.356;12.458;2022-12-24T10:00:20;10.70;97.90
65034;DHT22;51601;51.356;12.458;2022-12-24T10:04:43;10.60;98.20
65034;DHT22;51601;51.356;12.458;2022-12-24T10:09:11;10.50;98.70
65034;DHT22;51601;51.356;12.458;2022-12-24T10:13:43;10.60;99.50
65034;DHT22;51601;51.356;12.458;2022-12-24T10:18:15;10.60;99.40
65034;DHT22;51601;51.356;12.458;2022-12-24T10:22:56;10.60;99.70
65034;DHT22;51601;51.356;12.458;2022-12-24T10:27:18;10.70;99.90
65034;DHT22;51601;51.356;12.458;2022-12-24T10:31:52;10.90;99.90
65034;DHT22;51601;51.356;12.458;2022-12-24T10:36:16;11.00;99.90
65034;DHT22;51601;51.356;12.458;2022-12-24T10:40:40;11.20;99.60
65034;DHT22;51601;51.356;12.458;2022-12-24T10:45:03;11.30;98.90
65034;DHT22;51601;51.356;12.458;2022-12-24T10:49:31;11.60;98.70
65034;DHT22;51601;51.356;12.458;2022-12-24T10:53:58;11.80;98.30
65034;DHT22;51601;51.356;12.458;2022-12-24T10:58:19;11.90;97.10
65034;DHT22;51601;51.356;12.458;2022-12-24T11:02:39;11.80;96.70
65034;DHT22;51601;51.356;12.458;2022-12-24T11:06:58;11.80;96.80
65034;DHT22;51601;51.356;12.458;2022-12-24T11:11:19;11.70;97.00
65034;DHT22;51601;51.356;12.458;2022-12-24T11:15:40;11.50;96.70
65034;DHT22;51601;51.356;12.458;2022-12-24T11:20:00;11.40;97.10
65034;DHT22;51601;51.356;12.458;2022-12-24T11:24:25;11.30;97.70
65034;DHT22;51601;51.356;12.458;2022-12-24T11:29:04;11.30;98.10
65034;DHT22;51601;51.356;12.458;2022-12-24T11:33:23;11.30;98.20
65034;DHT22;51601;51.356;12.458;2022-12-24T11:37:43;11.30;98.50
65034;DHT22;51601;51.356;12.458;2022-12-24T11:42:01;11.30;98.50
65034;DHT22;51601;51.356;12.458;2022-12-24T11:46:33;11.30;98.30
65034;DHT22;51601;51.356;12.458;2022-12-24T11:50:57;11.30;98.20
65034;DHT22;51601;51.356;12.458;2022-12-24T11:55:20;11.30;98.60
65034;DHT22;51601;51.356;12.458;2022-12-24T11:59:45;11.40;98.60
65034;DHT22;51601;51.356;12.458;2022-12-24T12:04:09;11.50;98.50
65034;DHT22;51601;51.356;12.458;2022-12-24T12:08:32;11.40;98.50
65034;DHT22;51601;51.356;12.458;2022-12-24T12:12:58;11.50;98.40
65034;DHT22;51601;51.356;12.458;2022-12-24T12:17:26;11.50;98.50
65034;DHT22;51601;51.356;12.458;2022-12-24T12:21:48;11.50;98.30
65034;DHT22;51601;51.356;12.458;2022-12-24T12:26:11;11.50;98.30
65034;DHT22;51601;51.356;12.458;2022-12-24T12:30:35;11.50;98.20
65034;DHT22;51601;51.356;12.458;2022-12-24T12:35:00;11.50;97.80
65034;DHT22;51601;51.356;12.458;2022-12-24T12:39:22;11.50;97.90
65034;DHT22;51601;51.356;12.458;2022-12-24T12:48:46;11.50;98.00
65034;DHT22;51601;51.356;12.458;2022-12-24T12:53:29;11.50;98.00
65034;DHT22;51601;51.356;12.458;2022-12-24T12:57:55;11.40;98.10
65034;DHT22;51601;51.356;12.458;2022-12-24T13:02:35;11.50;98.50
65034;DHT22;51601;51.356;12.458;2022-12-24T13:12:12;11.50;98.30
65034;DHT22;51601;51.356;12.458;2022-12-24T13:17:01;11.60;97.50
65034;DHT22;51601;51.356;12.458;2022-12-24T13:21:29;11.50;96.60
65034;DHT22;51601;51.356;12.458;2022-12-24T13:25:49;11.50;96.50
65034;DHT22;51601;51.356;12.458;2022-12-24T13:30:32;11.50;96.30
65034;DHT22;51601;51.356;12.458;2022-12-24T13:34:53;11.50;95.90
65034;DHT22;51601;51.356;12.458;2022-12-24T13:39:19;11.40;96.40
65034;DHT22;51601;51.356;12.458;2022-12-24T13:44:01;11.30;97.00
65034;DHT22;51601;51.356;12.458;2022-12-24T13:48:31;11.10;97.80
65034;DHT22;51601;51.356;12.458;2022-12-24T13:52:51;10.90;98.70
65034;DHT22;51601;51.356;12.458;2022-12-24T13:57:30;10.80;99.40
65034;DHT22;51601;51.356;12.458;2022-12-24T14:01:51;10.70;99.90
65034;DHT22;51601;51.356;12.458;2022-12-24T14:06:10;10.70;99.90
65034;DHT22;51601;51.356;12.458;2022-12-24T14:10:33;10.70;99.90
65034;DHT22;51601;51.356;12.458;2022-12-24T14:14:56;10.60;99.90
65034;DHT22;51601;51.356;12.458;2022-12-24T14:19:18;10.60;99.90
65034;DHT22;51601;51.356;12.458;2022-12-24T14:23:43;10.60;99.90
65034;DHT22;51601;51.356;12.458;2022-12-24T14:28:05;10.60;99.90
65034;DHT22;51601;51.356;12.458;2022-12-24T14:32:34;10.60;99.90
65034;DHT22;51601;51.356;12.458;2022-12-24T14:36:54;10.60;99.90
65034;DHT22;51601;51.356;12.458;2022-12-24T14:41:29;10.50;99.90
65034;DHT22;51601;51.356;12.458;2022-12-24T14:45:54;10.50;99.90
65034;DHT22;51601;51.356;12.458;2022-12-24T14:55:27;10.40;99.90
65034;DHT22;51601;51.356;12.458;2022-12-24T14:59:47;10.40;99.90
65034;DHT22;51601;51.356;12.458;2022-12-24T15:04:14;10.30;99.90
65034;DHT22;51601;51.356;12.458;2022-12-24T15:08:38;10.30;99.90
65034;DHT22;51601;51.356;12.458;2022-12-24T15:13:02;10.20;99.90
65034;DHT22;51601;51.356;12.458;2022-12-24T15:17:22;10.20;99.90
65034;DHT22;51601;51.356;12.458;2022-12-24T15:21:41;10.10;99.90
65034;DHT22;51601;51.356;12.458;2022-12-24T15:26:10;10.10;99.90
65034;DHT22;51601;51.356;12.458;2022-12-24T15:30:32;10.00;99.90
65034;DHT22;51601;51.356;12.458;2022-12-24T15:34:51;9.90;99.90
65034;DHT22;51601;51.356;12.458;2022-12-24T15:39:14;9.80;99.90
65034;DHT22;51601;51.356;12.458;2022-12-24T15:43:39;9.70;99.90
65034;DHT22;51601;51.356;12.458;2022-12-24T15:48:04;9.60;99.90
65034;DHT22;51601;51.356;12.458;2022-12-24T15:52:24;9.50;99.90
65034;DHT22;51601;51.356;12.458;2022-12-24T15:56:45;9.50;99.90
65034;DHT22;51601;51.356;12.458;2022-12-24T16:01:26;9.40;99.90
65034;DHT22;51601;51.356;12.458;2022-12-24T16:05:45;9.40;99.90
65034;DHT22;51601;51.356;12.458;2022-12-24T16:10:39;9.30;99.90
65034;DHT22;51601;51.356;12.458;2022-12-24T16:15:45;9.20;99.90
65034;DHT22;51601;51.356;12.458;2022-12-24T16:20:21;9.10;99.90
65034;DHT22;51601;51.356;12.458;2022-12-24T16:24:55;9.00;99.90
65034;DHT22;51601;51.356;12.458;2022-12-24T16:29:30;8.90;99.90
65034;DHT22;51601;51.356;12.458;2022-12-24T16:34:04;8.90;99.90
65034;DHT22;51601;51.356;12.458;2022-12-24T16:38:40;8.90;99.90
65034;DHT22;51601;51.356;12.458;2022-12-24T16:43:32;8.80;99.90
65034;DHT22;51601;51.356;12.458;2022-12-24T16:48:24;8.70;99.90
65034;DHT22;51601;51.356;12.458;2022-12-24T16:52:58;8.60;99.90
65034;DHT22;51601;51.356;12.458;2022-12-24T16:57:34;8.60;99.90
65034;DHT22;51601;51.356;12.458;2022-12-24T17:02:10;8.50;99.90
65034;DHT22;51601;51.356;12.458;2022-12-24T17:06:48;8.40;99.90
65034;DHT22;51601;51.356;12.458;2022-12-24T17:11:23;8.40;99.90
65034;DHT22;51601;51.356;12.458;2022-12-24T17:15:59;8.30;99.90
65034;DHT22;51601;51.356;12.458;2022-12-24T17:20:34;8.20;99.90
65034;DHT22;51601;51.356;12.458;2022-12-24T17:25:11;8.20;99.90
65034;DHT22;51601;51.356;12.458;2022-12-24T17:29:45;8.10;99.90
65034;DHT22;51601;51.356;12.458;2022-12-24T17:34:21;8.10;99.90
65034;DHT22;51601;51.356;12.458;2022-12-24T17:38:55;8.10;99.90
65034;DHT22;51601;51.356;12.458;2022-12-24T17:43:29;8.10;99.90
65034;DHT22;51601;51.356;12.458;2022-12-24T17:48:04;8.00;99.90
65034;DHT22;51601;51.356;12.458;2022-12-24T17:52:39;8.00;99.90
65034;DHT22;51601;51.356;12.458;2022-12-24T17:57:13;8.00;99.90
65034;DHT22;51601;51.356;12.458;2022-12-24T18:01:48;8.00;99.90
65034;DHT22;51601;51.356;12.458;2022-12-24T18:06:22;8.10;99.90
65034;DHT22;51601;51.356;12.458;2022-12-24T18:10:58;8.10;99.90
65034;DHT22;51601;51.356;12.458;2022-12-24T18:15:33;8.10;99.90
65034;DHT22;51601;51.356;12.458;2022-12-24T18:20:08;8.10;99.90
65034;DHT22;51601;51.356;12.458;2022-12-24T18:24:42;8.10;99.90
65034;DHT22;51601;51.356;12.458;2022-12-24T18:29:18;8.00;99.90
65034;DHT22;51601;51.356;12.458;2022-12-24T18:33:53;8.00;99.90
65034;DHT22;51601;51.356;12.458;2022-12-24T18:38:27;8.00;99.90
65034;DHT22;51601;51.356;12.458;2022-12-24T18:43:01;7.90;99.90
65034;DHT22;51601;51.356;12.458;2022-12-24T18:47:38;7.90;99.90
65034;DHT22;51601;51.356;12.458;2022-12-24T18:52:12;7.80;99.90
65034;DHT22;51601;51.356;12.458;2022-12-24T18:56:54;7.70;99.90
65034;DHT22;51601;51.356;12.458;2022-12-24T19:01:30;7.70;99.90
65034;DHT22;51601;51.356;12.458;2022-12-24T19:06:07;7.70;99.90
65034;DHT22;51601;51.356;12.458;2022-12-24T19:10:42;7.60;99.90
65034;DHT22;51601;51.356;12.458;2022-12-24T19:15:16;7.50;99.90
65034;DHT22;51601;51.356;12.458;2022-12-24T19:19:50;7.50;99.90
65034;DHT22;51601;51.356;12.458;2022-12-24T19:24:26;7.40;99.90
65034;DHT22;51601;51.356;12.458;2022-12-24T19:29:00;7.40;99.90
65034;DHT22;51601;51.356;12.458;2022-12-24T19:33:36;7.40;99.90
65034;DHT22;51601;51.356;12.458;2022-12-24T19:38:14;7.30;99.90
65034;DHT22;51601;51.356;12.458;2022-12-24T19:42:50;7.20;99.90
65034;DHT22;51601;51.356;12.458;2022-12-24T19:47:24;7.20;99.90
65034;DHT22;51601;51.356;12.458;2022-12-24T19:52:01;7.10;99.90
65034;DHT22;51601;51.356;12.458;2022-12-24T19:56:35;7.00;99.90
65034;DHT22;51601;51.356;12.458;2022-12-24T20:01:13;7.00;99.90
65034;DHT22;51601;51.356;12.458;2022-12-24T20:05:48;7.00;99.90
65034;DHT22;51601;51.356;12.458;2022-12-24T20:10:22;6.90;99.90
65034;DHT22;51601;51.356;12.458;2022-12-24T20:14:56;6.80;99.90
65034;DHT22;51601;51.356;12.458;2022-12-24T20:19:32;6.70;99.90
65034;DHT22;51601;51.356;12.458;2022-12-24T20:24:07;6.70;99.90
65034;DHT22;51601;51.356;12.458;2022-12-24T20:28:42;6.70;99.90
65034;DHT22;51601;51.356;12.458;2022-12-24T20:33:16;6.60;99.90
65034;DHT22;51601;51.356;12.458;2022-12-24T20:37:51;6.60;99.90
65034;DHT22;51601;51.356;12.458;2022-12-24T20:42:25;6.50;99.90
65034;DHT22;51601;51.356;12.458;2022-12-24T20:46:59;6.40;99.90
65034;DHT22;51601;51.356;12.458;2022-12-24T20:51:33;6.30;99.90
65034;DHT22;51601;51.356;12.458;2022-12-24T20:56:09;6.30;99.90
65034;DHT22;51601;51.356;12.458;2022-12-24T21:00:44;6.20;99.90
65034;DHT22;51601;51.356;12.458;2022-12-24T21:05:18;6.20;99.90
65034;DHT22;51601;51.356;12.458;2022-12-24T21:09:52;6.10;99.90
65034;DHT22;51601;51.356;12.458;2022-12-24T21:14:28;6.00;99.90
65034;DHT22;51601;51.356;12.458;2022-12-24T21:19:03;6.00;99.90
65034;DHT22;51601;51.356;12.458;2022-12-24T21:23:37;6.00;99.90
65034;DHT22;51601;51.356;12.458;2022-12-24T21:28:13;6.00;99.90
65034;DHT22;51601;51.356;12.458;2022-12-24T21:32:50;6.00;99.90
65034;DHT22;51601;51.356;12.458;2022-12-24T21:37:25;5.90;99.90
65034;DHT22;51601;51.356;12.458;2022-12-24T21:41:59;5.80;99.90
65034;DHT22;51601;51.356;12.458;2022-12-24T21:46:33;5.70;99.90
65034;DHT22;51601;51.356;12.458;2022-12-24T21:51:09;5.70;99.90
65034;DHT22;51601;51.356;12.458;2022-12-24T21:55:43;5.60;99.90
65034;DHT22;51601;51.356;12.458;2022-12-24T22:00:18;5.60;99.90
65034;DHT22;51601;51.356;12.458;2022-12-24T22:05:02;5.50;99.90
65034;DHT22;51601;51.356;12.458;2022-12-24T22:09:38;5.60;99.90
65034;DHT22;51601;51.356;12.458;2022-12-24T22:14:35;5.50;99.90
65034;DHT22;51601;51.356;12.458;2022-12-24T22:19:09;5.60;99.90
65034;DHT22;51601;51.356;12.458;2022-12-24T22:23:44;5.60;99.90
65034;DHT22;51601;51.356;12.458;2022-12-24T22:28:19;5.60;99.90
65034;DHT22;51601;51.356;12.458;2022-12-24T22:32:53;5.60;99.90
65034;DHT22;51601;51.356;12.458;2022-12-24T22:37:28;5.50;99.90
65034;DHT22;51601;51.356;12.458;2022-12-24T22:42:02;5.40;99.90
65034;DHT22;51601;51.356;12.458;2022-12-24T22:46:37;5.40;99.90
65034;DHT22;51601;51.356;12.458;2022-12-24T22:51:13;5.30;99.90
65034;DHT22;51601;51.356;12.458;2022-12-24T22:55:54;5.30;99.90
65034;DHT22;51601;51.356;12.458;2022-12-24T23:00:39;5.30;99.90
65034;DHT22;51601;51.356;12.458;2022-12-24T23:05:17;5.30;99.90
65034;DHT22;51601;51.356;12.458;2022-12-24T23:09:35;5.40;99.90
65034;DHT22;51601;51.356;12.458;2022-12-24T23:13:53;5.40;99.90
65034;DHT22;51601;51.356;12.458;2022-12-24T23:18:29;5.30;99.90
65034;DHT22;51601;51.356;12.458;2022-12-24T23:22:49;5.30;99.90
65034;DHT22;51601;51.356;12.458;2022-12-24T23:27:09;5.40;99.90
65034;DHT22;51601;51.356;12.458;2022-12-24T23:31:26;5.30;99.90
65034;DHT22;51601;51.356;12.458;2022-12-24T23:35:45;5.30;99.90
65034;DHT22;51601;51.356;12.458;2022-12-24T23:40:05;5.20;99.90
65034;DHT22;51601;51.356;12.458;2022-12-24T23:44:25;5.20;99.90
65034;DHT22;51601;51.356;12.458;2022-12-24T23:48:52;5.20;99.90
65034;DHT22;51601;51.356;12.458;2022-12-24T23:53:12;5.20;99.90
65034;DHT22;51601;51.356;12.458;2022-12-24T23:57:32;5.20;99.90
